sensor_id;sensor_type;location;lat;lon;timestamp;pressure;altitude;pressure_sealevel;temperature;humidity
14800;BME280;7491;57.750;11.970;2024-01-10T00:01:25;79143.22;;;-142.11;100.00
14800;BME280;7491;57.750;11.970;2024-01-10T00:03:53;79141.16;;;-142.11;100.00
14800;BME280;7491;57.750;11.970;2024-01-10T00:06:20;79130.97;;;-142.11;100.00
14800;BME280;7491;57.750;11.970;2024-01-10T00:08:48;79133.00;;;-142.11;100.00
14800;BME280;7491;57.750;11.970;2024-01-10T00:11:14;79130.97;;;-142.11;100.00
14800;BME280;7491;57.750;11.970;2024-01-10T00:13:41;79139.13;;;-142.11;100.00
14800;BME280;7491;57.750;11.970;2024-01-10T00:16:11;79139.13;;;-142.11;100.00
14800;BME280;7491;57.750;11.970;2024-01-10T00:18:41;79128.94;;;-142.11;100.00
14800;BME280;7491;57.750;11.970;2024-01-10T00:21:13;79137.09;;;-142.11;100.00
14800;BME280;7491;57.750;11.970;2024-01-10T00:23:40;79128.94;;;-142.11;100.00
14800;BME280;7491;57.750;11.970;2024-01-10T00:26:08;79120.78;;;-142.11;100.00
14800;BME280;7491;57.750;11.970;2024-01-10T00:28:34;79122.81;;;-142.11;100.00
14800;BME280;7491;57.750;11.970;2024-01-10T00:31:01;79126.88;;;-142.11;100.00
14800;BME280;7491;57.750;11.970;2024-01-10T00:33:28;79128.94;;;-142.11;100.00
14800;BME280;7491;57.750;11.970;2024-01-10T00:35:54;79139.13;;;-142.11;100.00
14800;BME280;7491;57.750;11.970;2024-01-10T00:38:21;79141.16;;;-142.11;100.00
14800;BME280;7491;57.750;11.970;2024-01-10T00:40:47;79145.25;;;-142.11;100.00
14800;BME280;7491;57.750;11.970;2024-01-10T00:43:15;79151.38;;;-142.11;100.00
14800;BME280;7491;57.750;11.970;2024-01-10T00:45:42;79137.09;;;-142.11;100.00
14800;BME280;7491;57.750;11.970;2024-01-10T00:48:09;79137.09;;;-142.11;100.00
14800;BME280;7491;57.750;11.970;2024-01-10T00:50:35;79130.97;;;-142.11;100.00
14800;BME280;7491;57.750;11.970;2024-01-10T00:53:02;79137.09;;;-142.11;100.00
14800;BME280;7491;57.750;11.970;2024-01-10T00:55:29;79153.41;;;-142.11;100.00
14800;BME280;7491;57.750;11.970;2024-01-10T00:57:55;79151.38;;;-142.11;100.00
14800;BME280;7491;57.750;11.970;2024-01-10T01:00:23;79147.28;;;-142.11;100.00
14800;BME280;7491;57.750;11.970;2024-01-10T01:02:51;79122.81;;;-142.11;100.00
14800;BME280;7491;57.750;11.970;2024-01-10T01:05:17;79124.84;;;-142.11;100.00
14800;BME280;7491;57.750;11.970;2024-01-10T01:07:44;79128.94;;;-142.11;100.00
14800;BME280;7491;57.750;11.970;2024-01-10T01:10:11;79128.94;;;-142.11;100.00
14800;BME280;7491;57.750;11.970;2024-01-10T01:12:38;79133.00;;;-142.11;100.00
14800;BME280;7491;57.750;11.970;2024-01-10T01:15:06;79128.94;;;-142.11;100.00
14800;BME280;7491;57.750;11.970;2024-01-10T01:17:34;79128.94;;;-142.11;100.00
14800;BME280;7491;57.750;11.970;2024-01-10T01:20:01;79137.09;;;-142.11;100.00
14800;BME280;7491;57.750;11.970;2024-01-10T01:22:30;79143.22;;;-142.11;100.00
14800;BME280;7491;57.750;11.970;2024-01-10T01:24:56;79149.34;;;-142.11;100.00
14800;BME280;7491;57.750;11.970;2024-01-10T01:27:23;79153.41;;;-142.11;100.00
14800;BME280;7491;57.750;11.970;2024-01-10T01:29:50;79147.28;;;-142.11;100.00
14800;BME280;7491;57.750;11.970;2024-01-10T01:32:17;79143.22;;;-142.11;100.00
14800;BME280;7491;57.750;11.970;2024-01-10T01:34:45;79145.25;;;-142.11;100.00
14800;BME280;7491;57.750;11.970;2024-01-10T01:37:11;79147.28;;;-142.11;100.00
14800;BME280;7491;57.750;11.970;2024-01-10T01:39:38;79163.63;;;-142.11;100.00
14800;BME280;7491;57.750;11.970;2024-01-10T01:42:05;79175.84;;;-142.11;100.00
14800;BME280;7491;57.750;11.970;2024-01-10T01:44:31;79175.84;;;-142.11;100.00
14800;BME280;7491;57.750;11.970;2024-01-10T01:46:58;79186.06;;;-142.11;100.00
14800;BME280;7491;57.750;11.970;2024-01-10T01:49:25;79173.81;;;-142.11;100.00
14800;BME280;7491;57.750;11.970;2024-01-10T01:51:53;79173.81;;;-142.11;100.00
14800;BME280;7491;57.750;11.970;2024-01-10T01:54:20;79171.78;;;-142.11;100.00
14800;BME280;7491;57.750;11.970;2024-01-10T01:56:48;79179.94;;;-142.11;100.00
14800;BME280;7491;57.750;11.970;2024-01-10T01:59:16;79169.72;;;-142.11;100.00
14800;BME280;7491;57.750;11.970;2024-01-10T02:01:43;79184.00;;;-142.11;100.00
14800;BME280;7491;57.750;11.970;2024-01-10T02:04:10;79194.22;;;-142.11;100.00
14800;BME280;7491;57.750;11.970;2024-01-10T02:06:37;79190.13;;;-142.11;100.00
14800;BME280;7491;57.750;11.970;2024-01-10T02:09:05;79190.13;;;-142.11;100.00
14800;BME280;7491;57.750;11.970;2024-01-10T02:11:32;79177.91;;;-142.11;100.00
14800;BME280;7491;57.750;11.970;2024-01-10T02:13:58;79192.19;;;-142.11;100.00
14800;BME280;7491;57.750;11.970;2024-01-10T02:16:25;79206.47;;;-142.11;100.00
14800;BME280;7491;57.750;11.970;2024-01-10T02:18:51;79206.47;;;-142.11;100.00
14800;BME280;7491;57.750;11.970;2024-01-10T02:21:20;79210.53;;;-142.11;100.00
14800;BME280;7491;57.750;11.970;2024-01-10T02:23:47;79200.34;;;-142.11;100.00
14800;BME280;7491;57.750;11.970;2024-01-10T02:26:15;79194.22;;;-142.11;100.00
14800;BME280;7491;57.750;11.970;2024-01-10T02:28:42;79198.28;;;-142.11;100.00
14800;BME280;7491;57.750;11.970;2024-01-10T02:31:09;79210.53;;;-142.11;100.00
14800;BME280;7491;57.750;11.970;2024-01-10T02:33:36;79204.41;;;-142.11;100.00
14800;BME280;7491;57.750;11.970;2024-01-10T02:36:03;79202.38;;;-142.11;100.00
14800;BME280;7491;57.750;11.970;2024-01-10T02:38:30;79194.22;;;-142.11;100.00
14800;BME280;7491;57.750;11.970;2024-01-10T02:40:56;79192.19;;;-142.11;100.00
14800;BME280;7491;57.750;11.970;2024-01-10T02:43:24;79177.91;;;-142.11;100.00
14800;BME280;7491;57.750;11.970;2024-01-10T02:45:51;79188.09;;;-142.11;100.00
14800;BME280;7491;57.750;11.970;2024-01-10T02:48:17;79175.84;;;-142.11;100.00
14800;BME280;7491;57.750;11.970;2024-01-10T02:50:44;79184.00;;;-142.11;100.00
14800;BME280;7491;57.750;11.970;2024-01-10T02:53:11;79208.50;;;-142.11;100.00
14800;BME280;7491;57.750;11.970;2024-01-10T02:55:37;79194.22;;;-142.11;100.00
14800;BME280;7491;57.750;11.970;2024-01-10T02:58:04;79200.34;;;-142.11;100.00
14800;BME280;7491;57.750;11.970;2024-01-10T03:00:32;79218.69;;;-142.11;100.00
14800;BME280;7491;57.750;11.970;2024-01-10T03:02:59;79202.38;;;-142.11;100.00
14800;BME280;7491;57.750;11.970;2024-01-10T03:05:26;79192.19;;;-142.11;100.00
14800;BME280;7491;57.750;11.970;2024-01-10T03:07:52;79218.69;;;-142.11;100.00
14800;BME280;7491;57.750;11.970;2024-01-10T03:10:19;79214.63;;;-142.11;100.00
14800;BME280;7491;57.750;11.970;2024-01-10T03:12:46;79212.59;;;-142.11;100.00
14800;BME280;7491;57.750;11.970;2024-01-10T03:15:12;79206.47;;;-142.11;100.00
14800;BME280;7491;57.750;11.970;2024-01-10T03:17:41;79196.25;;;-142.11;100.00
14800;BME280;7491;57.750;11.970;2024-01-10T03:20:08;79181.97;;;-142.11;100.00
14800;BME280;7491;57.750;11.970;2024-01-10T03:22:35;79212.59;;;-142.11;100.00
14800;BME280;7491;57.750;11.970;2024-01-10T03:25:01;79198.28;;;-142.11;100.00
14800;BME280;7491;57.750;11.970;2024-01-10T03:27:28;79216.66;;;-142.11;100.00
14800;BME280;7491;57.750;11.970;2024-01-10T03:29:55;79226.88;;;-142.11;100.00
14800;BME280;7491;57.750;11.970;2024-01-10T03:32:21;79214.63;;;-142.11;100.00
14800;BME280;7491;57.750;11.970;2024-01-10T03:34:50;79222.78;;;-142.11;100.00
14800;BME280;7491;57.750;11.970;2024-01-10T03:37:16;79224.81;;;-142.11;100.00
14800;BME280;7491;57.750;11.970;2024-01-10T03:39:43;79212.59;;;-142.11;100.00
14800;BME280;7491;57.750;11.970;2024-01-10T03:42:10;79206.47;;;-142.11;100.00
14800;BME280;7491;57.750;11.970;2024-01-10T03:44:37;79210.53;;;-142.11;100.00
14800;BME280;7491;57.750;11.970;2024-01-10T03:47:03;79226.88;;;-142.11;100.00
14800;BME280;7491;57.750;11.970;2024-01-10T03:49:30;79208.50;;;-142.11;100.00
14800;BME280;7491;57.750;11.970;2024-01-10T03:51:58;79222.78;;;-142.11;100.00
14800;BME280;7491;57.750;11.970;2024-01-10T03:54:25;79214.63;;;-142.11;100.00
14800;BME280;7491;57.750;11.970;2024-01-10T03:56:52;79232.97;;;-142.11;100.00
14800;BME280;7491;57.750;11.970;2024-01-10T03:59:18;79222.78;;;-142.11;100.00
14800;BME280;7491;57.750;11.970;2024-01-10T04:01:45;79218.69;;;-142.11;100.00
14800;BME280;7491;57.750;11.970;2024-01-10T04:04:12;79210.53;;;-142.11;100.00
14800;BME280;7491;57.750;11.970;2024-01-10T04:06:38;79218.69;;;-142.11;100.00
14800;BME280;7491;57.750;11.970;2024-01-10T04:09:07;79222.78;;;-142.11;100.00
14800;BME280;7491;57.750;11.970;2024-01-10T04:11:35;79251.34;;;-142.11;100.00
14800;BME280;7491;57.750;11.970;2024-01-10T04:14:02;79247.25;;;-142.11;100.00
14800;BME280;7491;57.750;11.970;2024-01-10T04:16:29;79251.34;;;-142.11;100.00
14800;BME280;7491;57.750;11.970;2024-01-10T04:18:55;79230.94;;;-142.11;100.00
14800;BME280;7491;57.750;11.970;2024-01-10T04:21:22;79255.44;;;-142.11;100.00
14800;BME280;7491;57.750;11.970;2024-01-10T04:23:49;79255.44;;;-142.11;100.00
14800;BME280;7491;57.750;11.970;2024-01-10T04:26:18;79284.00;;;-142.11;100.00
14800;BME280;7491;57.750;11.970;2024-01-10T04:28:46;79261.56;;;-142.11;100.00
14800;BME280;7491;57.750;11.970;2024-01-10T04:31:13;79265.63;;;-142.11;100.00
14800;BME280;7491;57.750;11.970;2024-01-10T04:33:40;79286.03;;;-142.11;100.00
14800;BME280;7491;57.750;11.970;2024-01-10T04:36:07;79292.16;;;-142.11;100.00
14800;BME280;7491;57.750;11.970;2024-01-10T04:38:33;79312.56;;;-142.11;100.00
14800;BME280;7491;57.750;11.970;2024-01-10T04:41:00;79316.63;;;-142.11;100.00
14800;BME280;7491;57.750;11.970;2024-01-10T04:43:28;79328.88;;;-142.11;100.00
14800;BME280;7491;57.750;11.970;2024-01-10T04:45:55;79332.97;;;-142.11;100.00
14800;BME280;7491;57.750;11.970;2024-01-10T04:48:21;79332.97;;;-142.11;100.00
14800;BME280;7491;57.750;11.970;2024-01-10T04:50:48;79328.88;;;-142.11;100.00
14800;BME280;7491;57.750;11.970;2024-01-10T04:53:14;79324.81;;;-142.11;100.00
14800;BME280;7491;57.750;11.970;2024-01-10T04:55:41;79328.88;;;-142.11;100.00
14800;BME280;7491;57.750;11.970;2024-01-10T04:58:08;79320.72;;;-142.11;100.00
14800;BME280;7491;57.750;11.970;2024-01-10T05:00:36;79330.91;;;-142.11;100.00
14800;BME280;7491;57.750;11.970;2024-01-10T05:03:03;79312.56;;;-142.11;100.00
14800;BME280;7491;57.750;11.970;2024-01-10T05:05:29;79304.41;;;-142.11;100.00
14800;BME280;7491;57.750;11.970;2024-01-10T05:07:56;79312.56;;;-142.11;100.00
14800;BME280;7491;57.750;11.970;2024-01-10T05:10:23;79318.69;;;-142.11;100.00
14800;BME280;7491;57.750;11.970;2024-01-10T05:12:50;79312.56;;;-142.11;100.00
14800;BME280;7491;57.750;11.970;2024-01-10T05:15:16;79306.44;;;-142.11;100.00
14800;BME280;7491;57.750;11.970;2024-01-10T05:17:44;79281.94;;;-142.11;100.00
14800;BME280;7491;57.750;11.970;2024-01-10T05:20:11;79284.00;;;-142.11;100.00
14800;BME280;7491;57.750;11.970;2024-01-10T05:22:40;79271.75;;;-142.11;100.00
14800;BME280;7491;57.750;11.970;2024-01-10T05:25:07;79267.66;;;-142.11;100.00
14800;BME280;7491;57.750;11.970;2024-01-10T05:27:33;79269.72;;;-142.11;100.00
14800;BME280;7491;57.750;11.970;2024-01-10T05:30:00;79265.63;;;-142.11;100.00
14800;BME280;7491;57.750;11.970;2024-01-10T05:32:27;79253.38;;;-142.11;100.00
14800;BME280;7491;57.750;11.970;2024-01-10T05:34:55;79251.34;;;-142.11;100.00
14800;BME280;7491;57.750;11.970;2024-01-10T05:37:22;79247.25;;;-142.11;100.00
14800;BME280;7491;57.750;11.970;2024-01-10T05:39:48;79243.19;;;-142.11;100.00
14800;BME280;7491;57.750;11.970;2024-01-10T05:42:15;79239.09;;;-142.11;100.00
14800;BME280;7491;57.750;11.970;2024-01-10T05:44:42;79228.91;;;-142.11;100.00
14800;BME280;7491;57.750;11.970;2024-01-10T05:47:08;79222.78;;;-142.11;100.00
14800;BME280;7491;57.750;11.970;2024-01-10T05:49:35;79232.97;;;-142.11;100.00
14800;BME280;7491;57.750;11.970;2024-01-10T05:52:03;79216.66;;;-142.11;100.00
14800;BME280;7491;57.750;11.970;2024-01-10T05:54:30;79206.47;;;-142.11;100.00
14800;BME280;7491;57.750;11.970;2024-01-10T05:56:56;79200.34;;;-142.11;100.00
14800;BME280;7491;57.750;11.970;2024-01-10T05:59:23;79208.50;;;-142.11;100.00
14800;BME280;7491;57.750;11.970;2024-01-10T06:01:50;79186.06;;;-142.11;100.00
14800;BME280;7491;57.750;11.970;2024-01-10T06:04:17;79177.91;;;-142.11;100.00
14800;BME280;7491;57.750;11.970;2024-01-10T06:06:44;79161.56;;;-142.11;100.00
14800;BME280;7491;57.750;11.970;2024-01-10T06:09:13;79161.56;;;-142.11;100.00
14800;BME280;7491;57.750;11.970;2024-01-10T06:11:41;79151.38;;;-142.11;100.00
14800;BME280;7491;57.750;11.970;2024-01-10T06:14:08;79149.34;;;-142.11;100.00
14800;BME280;7491;57.750;11.970;2024-01-10T06:16:35;79143.22;;;-142.11;100.00
14800;BME280;7491;57.750;11.970;2024-01-10T06:19:05;79175.84;;;-142.11;100.00
14800;BME280;7491;57.750;11.970;2024-01-10T06:21:32;79202.38;;;-142.11;100.00
14800;BME280;7491;57.750;11.970;2024-01-10T06:23:59;79196.25;;;-142.11;100.00
14800;BME280;7491;57.750;11.970;2024-01-10T06:26:27;79173.81;;;-142.11;100.00
14800;BME280;7491;57.750;11.970;2024-01-10T06:28:54;79147.28;;;-142.11;100.00
14800;BME280;7491;57.750;11.970;2024-01-10T06:31:21;79124.84;;;-142.11;100.00
14800;BME280;7491;57.750;11.970;2024-01-10T06:33:49;79124.84;;;-142.11;100.00
14800;BME280;7491;57.750;11.970;2024-01-10T06:36:15;79120.78;;;-142.11;100.00
14800;BME280;7491;57.750;11.970;2024-01-10T06:38:42;79153.41;;;-142.11;100.00
14800;BME280;7491;57.750;11.970;2024-01-10T06:41:09;79151.38;;;-142.11;100.00
14800;BME280;7491;57.750;11.970;2024-01-10T06:43:37;79139.13;;;-142.11;100.00
14800;BME280;7491;57.750;11.970;2024-01-10T06:46:04;79145.25;;;-142.11;100.00
14800;BME280;7491;57.750;11.970;2024-01-10T06:48:30;79139.13;;;-142.11;100.00
14800;BME280;7491;57.750;11.970;2024-01-10T06:50:58;79130.97;;;-142.11;100.00
14800;BME280;7491;57.750;11.970;2024-01-10T06:53:24;79124.84;;;-142.11;100.00
14800;BME280;7491;57.750;11.970;2024-01-10T06:55:51;79128.94;;;-142.11;100.00
14800;BME280;7491;57.750;11.970;2024-01-10T06:58:18;79128.94;;;-142.11;100.00
14800;BME280;7491;57.750;11.970;2024-01-10T07:00:46;79116.69;;;-142.11;100.00
14800;BME280;7491;57.750;11.970;2024-01-10T07:03:12;79112.59;;;-142.11;100.00
14800;BME280;7491;57.750;11.970;2024-01-10T07:05:39;79104.44;;;-142.11;100.00
14800;BME280;7491;57.750;11.970;2024-01-10T07:08:06;79100.38;;;-142.11;100.00
14800;BME280;7491;57.750;11.970;2024-01-10T07:10:32;79104.44;;;-142.11;100.00
14800;BME280;7491;57.750;11.970;2024-01-10T07:12:59;79079.97;;;-142.11;100.00
14800;BME280;7491;57.750;11.970;2024-01-10T07:15:29;79061.59;;;-142.11;100.00
14800;BME280;7491;57.750;11.970;2024-01-10T07:17:57;79084.03;;;-142.11;100.00
14800;BME280;7491;57.750;11.970;2024-01-10T07:20:24;79075.88;;;-142.11;100.00
14800;BME280;7491;57.750;11.970;2024-01-10T07:22:51;79069.75;;;-142.11;100.00
14800;BME280;7491;57.750;11.970;2024-01-10T07:25:17;79073.84;;;-142.11;100.00
14800;BME280;7491;57.750;11.970;2024-01-10T07:27:44;79069.75;;;-142.11;100.00
14800;BME280;7491;57.750;11.970;2024-01-10T07:30:11;79055.47;;;-142.11;100.00
14800;BME280;7491;57.750;11.970;2024-01-10T07:32:40;79065.69;;;-142.11;100.00
14800;BME280;7491;57.750;11.970;2024-01-10T07:35:09;79061.59;;;-142.11;100.00
14800;BME280;7491;57.750;11.970;2024-01-10T07:37:36;79067.72;;;-142.11;100.00
14800;BME280;7491;57.750;11.970;2024-01-10T07:40:04;79061.59;;;-142.11;100.00
14800;BME280;7491;57.750;11.970;2024-01-10T07:42:31;79033.03;;;-142.11;100.00
14800;BME280;7491;57.750;11.970;2024-01-10T07:44:58;79024.88;;;-142.11;100.00
14800;BME280;7491;57.750;11.970;2024-01-10T07:47:24;79033.03;;;-142.11;100.00
14800;BME280;7491;57.750;11.970;2024-01-10T07:49:51;79026.91;;;-142.11;100.00
14800;BME280;7491;57.750;11.970;2024-01-10T07:52:19;79022.84;;;-142.11;100.00
14800;BME280;7491;57.750;11.970;2024-01-10T07:54:46;79008.56;;;-142.11;100.00
14800;BME280;7491;57.750;11.970;2024-01-10T07:57:13;79008.56;;;-142.11;100.00
14800;BME280;7491;57.750;11.970;2024-01-10T07:59:40;79006.50;;;-142.11;100.00
14800;BME280;7491;57.750;11.970;2024-01-10T08:02:07;79002.44;;;-142.11;100.00
14800;BME280;7491;57.750;11.970;2024-01-10T08:04:35;78998.34;;;-142.11;100.00
14800;BME280;7491;57.750;11.970;2024-01-10T08:07:02;79002.44;;;-142.11;100.00
14800;BME280;7491;57.750;11.970;2024-01-10T08:09:30;79014.69;;;-142.11;100.00
14800;BME280;7491;57.750;11.970;2024-01-10T08:11:57;78980.00;;;-142.11;100.00
14800;BME280;7491;57.750;11.970;2024-01-10T08:14:24;78971.84;;;-142.11;100.00
14800;BME280;7491;57.750;11.970;2024-01-10T08:16:52;78975.91;;;-142.11;100.00
14800;BME280;7491;57.750;11.970;2024-01-10T08:19:20;78959.59;;;-142.11;100.00
14800;BME280;7491;57.750;11.970;2024-01-10T08:21:46;78957.56;;;-142.11;100.00
14800;BME280;7491;57.750;11.970;2024-01-10T08:24:13;78957.56;;;-142.11;100.00
14800;BME280;7491;57.750;11.970;2024-01-10T08:26:41;78947.34;;;-142.11;100.00
14800;BME280;7491;57.750;11.970;2024-01-10T08:29:08;78949.41;;;-142.11;100.00
14800;BME280;7491;57.750;11.970;2024-01-10T08:31:34;78969.78;;;-142.11;100.00
14800;BME280;7491;57.750;11.970;2024-01-10T08:34:01;78961.63;;;-142.11;100.00
14800;BME280;7491;57.750;11.970;2024-01-10T08:36:28;78969.78;;;-142.11;100.00
14800;BME280;7491;57.750;11.970;2024-01-10T08:38:54;78971.84;;;-142.11;100.00
14800;BME280;7491;57.750;11.970;2024-01-10T08:41:21;78998.34;;;-142.11;100.00
14800;BME280;7491;57.750;11.970;2024-01-10T08:43:49;78984.06;;;-142.11;100.00
14800;BME280;7491;57.750;11.970;2024-01-10T08:46:16;78996.31;;;-142.11;100.00
14800;BME280;7491;57.750;11.970;2024-01-10T08:48:43;79004.47;;;-142.11;100.00
14800;BME280;7491;57.750;11.970;2024-01-10T08:51:09;79014.69;;;-142.11;100.00
14800;BME280;7491;57.750;11.970;2024-01-10T08:53:37;79008.56;;;-142.11;100.00
14800;BME280;7491;57.750;11.970;2024-01-10T08:56:04;79004.47;;;-142.11;100.00
14800;BME280;7491;57.750;11.970;2024-01-10T08:58:31;78996.31;;;-142.11;100.00
14800;BME280;7491;57.750;11.970;2024-01-10T09:00:59;79016.72;;;-142.11;100.00
14800;BME280;7491;57.750;11.970;2024-01-10T09:03:26;79024.88;;;-142.11;100.00
14800;BME280;7491;57.750;11.970;2024-01-10T09:05:52;79006.50;;;-142.11;100.00
14800;BME280;7491;57.750;11.970;2024-01-10T09:08:19;78996.31;;;-142.11;100.00
14800;BME280;7491;57.750;11.970;2024-01-10T09:10:46;78986.13;;;-142.11;100.00
14800;BME280;7491;57.750;11.970;2024-01-10T09:13:14;78980.00;;;-142.11;100.00
14800;BME280;7491;57.750;11.970;2024-01-10T09:15:41;78990.19;;;-142.11;100.00
14800;BME280;7491;57.750;11.970;2024-01-10T09:18:09;79002.44;;;-142.11;100.00
14800;BME280;7491;57.750;11.970;2024-01-10T09:20:36;78984.06;;;-142.11;100.00
14800;BME280;7491;57.750;11.970;2024-01-10T09:23:03;78975.91;;;-142.11;100.00
14800;BME280;7491;57.750;11.970;2024-01-10T09:25:29;78990.19;;;-142.11;100.00
14800;BME280;7491;57.750;11.970;2024-01-10T09:27:56;78984.06;;;-142.11;100.00
14800;BME280;7491;57.750;11.970;2024-01-10T09:30:23;78977.94;;;-142.11;100.00
14800;BME280;7491;57.750;11.970;2024-01-10T09:32:49;78984.06;;;-142.11;100.00
14800;BME280;7491;57.750;11.970;2024-01-10T09:35:17;78984.06;;;-142.11;100.00
14800;BME280;7491;57.750;11.970;2024-01-10T09:37:44;78990.19;;;-142.11;100.00
14800;BME280;7491;57.750;11.970;2024-01-10T09:40:14;78986.13;;;-142.11;100.00
14800;BME280;7491;57.750;11.970;2024-01-10T09:42:41;78982.03;;;-142.11;100.00
14800;BME280;7491;57.750;11.970;2024-01-10T09:45:09;79002.44;;;-142.11;100.00
14800;BME280;7491;57.750;11.970;2024-01-10T09:47:39;79002.44;;;-142.11;100.00
14800;BME280;7491;57.750;11.970;2024-01-10T09:50:08;79014.69;;;-142.11;100.00
14800;BME280;7491;57.750;11.970;2024-01-10T09:52:41;78973.88;;;-142.11;100.00
14800;BME280;7491;57.750;11.970;2024-01-10T09:55:08;78980.00;;;-142.11;100.00
14800;BME280;7491;57.750;11.970;2024-01-10T09:57:35;78996.31;;;-142.11;100.00
14800;BME280;7491;57.750;11.970;2024-01-10T10:00:04;79002.44;;;-142.11;100.00
14800;BME280;7491;57.750;11.970;2024-01-10T10:02:37;79010.59;;;-142.11;100.00
14800;BME280;7491;57.750;11.970;2024-01-10T10:05:11;79008.56;;;-142.11;100.00
14800;BME280;7491;57.750;11.970;2024-01-10T10:07:47;79002.44;;;-142.11;100.00
14800;BME280;7491;57.750;11.970;2024-01-10T10:10:15;79016.72;;;-142.11;100.00
14800;BME280;7491;57.750;11.970;2024-01-10T10:12:42;79012.63;;;-142.11;100.00
14800;BME280;7491;57.750;11.970;2024-01-10T10:15:11;79006.50;;;-142.11;100.00
14800;BME280;7491;57.750;11.970;2024-01-10T10:17:39;79002.44;;;-142.11;100.00
14800;BME280;7491;57.750;11.970;2024-01-10T10:20:12;78994.28;;;-142.11;100.00
14800;BME280;7491;57.750;11.970;2024-01-10T10:22:40;79000.41;;;-142.11;100.00
14800;BME280;7491;57.750;11.970;2024-01-10T10:25:15;78998.34;;;-142.11;100.00
14800;BME280;7491;57.750;11.970;2024-01-10T10:27:42;79002.44;;;-142.11;100.00
14800;BME280;7491;57.750;11.970;2024-01-10T10:30:09;78990.19;;;-142.11;100.00
14800;BME280;7491;57.750;11.970;2024-01-10T10:32:36;78994.28;;;-142.11;100.00
14800;BME280;7491;57.750;11.970;2024-01-10T10:35:03;78980.00;;;-142.11;100.00
14800;BME280;7491;57.750;11.970;2024-01-10T10:37:30;78988.16;;;-142.11;100.00
14800;BME280;7491;57.750;11.970;2024-01-10T10:39:57;78982.03;;;-142.11;100.00
14800;BME280;7491;57.750;11.970;2024-01-10T10:42:26;79002.44;;;-142.11;100.00
14800;BME280;7491;57.750;11.970;2024-01-10T10:44:57;78994.28;;;-142.11;100.00
14800;BME280;7491;57.750;11.970;2024-01-10T10:47:30;79000.41;;;-142.11;100.00
14800;BME280;7491;57.750;11.970;2024-01-10T10:50:03;78973.88;;;-142.11;100.00
14800;BME280;7491;57.750;11.970;2024-01-10T10:52:31;78986.13;;;-142.11;100.00
14800;BME280;7491;57.750;11.970;2024-01-10T10:54:59;78986.13;;;-142.11;100.00
14800;BME280;7491;57.750;11.970;2024-01-10T10:57:27;78975.91;;;-142.11;100.00
14800;BME280;7491;57.750;11.970;2024-01-10T10:59:55;78961.63;;;-142.11;100.00
14800;BME280;7491;57.750;11.970;2024-01-10T11:02:23;78965.72;;;-142.11;100.00
14800;BME280;7491;57.750;11.970;2024-01-10T11:04:50;78965.72;;;-142.11;100.00
14800;BME280;7491;57.750;11.970;2024-01-10T11:07:19;78980.00;;;-142.11;100.00
14800;BME280;7491;57.750;11.970;2024-01-10T11:09:48;78961.63;;;-142.11;100.00
14800;BME280;7491;57.750;11.970;2024-01-10T11:12:31;78959.59;;;-142.11;100.00
14800;BME280;7491;57.750;11.970;2024-01-10T11:15:14;78977.94;;;-142.11;100.00
14800;BME280;7491;57.750;11.970;2024-01-10T11:18:01;78971.84;;;-142.11;100.00
14800;BME280;7491;57.750;11.970;2024-01-10T11:20:48;78971.84;;;-142.11;100.00
14800;BME280;7491;57.750;11.970;2024-01-10T11:23:37;78959.59;;;-142.11;100.00
14800;BME280;7491;57.750;11.970;2024-01-10T11:26:05;78967.75;;;-142.11;100.00
14800;BME280;7491;57.750;11.970;2024-01-10T11:28:35;78951.44;;;-142.11;100.00
14800;BME280;7491;57.750;11.970;2024-01-10T11:31:03;78935.09;;;-142.11;100.00
14800;BME280;7491;57.750;11.970;2024-01-10T11:33:31;78931.03;;;-142.11;100.00
14800;BME280;7491;57.750;11.970;2024-01-10T11:36:13;78918.78;;;-142.11;100.00
14800;BME280;7491;57.750;11.970;2024-01-10T11:38:58;78914.72;;;-142.11;100.00
14800;BME280;7491;57.750;11.970;2024-01-10T11:41:28;78900.44;;;-142.11;100.00
14800;BME280;7491;57.750;11.970;2024-01-10T11:47:04;78896.34;;;-142.11;100.00
14800;BME280;7491;57.750;11.970;2024-01-10T11:49:31;78914.72;;;-142.11;100.00
14800;BME280;7491;57.750;11.970;2024-01-10T11:51:58;78920.81;;;-142.11;100.00
14800;BME280;7491;57.750;11.970;2024-01-10T11:54:39;78935.09;;;-142.11;100.00
14800;BME280;7491;57.750;11.970;2024-01-10T11:57:14;78933.06;;;-142.11;100.00
14800;BME280;7491;57.750;11.970;2024-01-10T11:59:45;78926.94;;;-142.11;100.00
14800;BME280;7491;57.750;11.970;2024-01-10T12:02:13;78949.41;;;-142.11;100.00
14800;BME280;7491;57.750;11.970;2024-01-10T12:04:40;78937.16;;;-142.11;100.00
14800;BME280;7491;57.750;11.970;2024-01-10T12:07:08;78937.16;;;-142.11;100.00
14800;BME280;7491;57.750;11.970;2024-01-10T12:09:35;78924.91;;;-142.11;100.00
14800;BME280;7491;57.750;11.970;2024-01-10T12:12:02;78908.59;;;-142.11;100.00
14800;BME280;7491;57.750;11.970;2024-01-10T12:14:29;78892.28;;;-142.11;100.00
14800;BME280;7491;57.750;11.970;2024-01-10T12:16:56;78904.50;;;-142.11;100.00
14800;BME280;7491;57.750;11.970;2024-01-10T12:19:25;78906.56;;;-142.11;100.00
14800;BME280;7491;57.750;11.970;2024-01-10T12:21:51;78902.47;;;-142.11;100.00
14800;BME280;7491;57.750;11.970;2024-01-10T12:24:18;78904.50;;;-142.11;100.00
14800;BME280;7491;57.750;11.970;2024-01-10T12:26:46;78892.28;;;-142.11;100.00
14800;BME280;7491;57.750;11.970;2024-01-10T12:29:13;78888.19;;;-142.11;100.00
14800;BME280;7491;57.750;11.970;2024-01-10T12:31:43;78877.97;;;-142.11;100.00
14800;BME280;7491;57.750;11.970;2024-01-10T12:34:11;78877.97;;;-142.11;100.00
14800;BME280;7491;57.750;11.970;2024-01-10T12:36:39;78859.63;;;-142.11;100.00